sensor_id;sensor_type;location;lat;lon;timestamp;P1;durP1;ratioP1;P2;durP2;ratioP2
74064;SDS011;62421;51.412;5.432;2023-12-20T00:00:55;22.77;;;4.97;;
74064;SDS011;62421;51.412;5.432;2023-12-20T00:03:20;15.67;;;4.57;;
74064;SDS011;62421;51.412;5.432;2023-12-20T00:05:45;18.10;;;5.23;;
74064;SDS011;62421;51.412;5.432;2023-12-20T00:08:10;14.63;;;3.88;;
74064;SDS011;62421;51.412;5.432;2023-12-20T00:10:36;21.93;;;5.87;;
74064;SDS011;62421;51.412;5.432;2023-12-20T00:13:01;28.47;;;5.30;;
74064;SDS011;62421;51.412;5.432;2023-12-20T00:15:26;18.67;;;4.07;;
74064;SDS011;62421;51.412;5.432;2023-12-20T00:17:51;16.67;;;3.13;;
74064;SDS011;62421;51.412;5.432;2023-12-20T00:20:16;18.30;;;3.47;;
74064;SDS011;62421;51.412;5.432;2023-12-20T00:22:42;28.90;;;3.83;;
74064;SDS011;62421;51.412;5.432;2023-12-20T00:25:07;19.87;;;3.10;;
74064;SDS011;62421;51.412;5.432;2023-12-20T00:27:32;17.98;;;2.90;;
74064;SDS011;62421;51.412;5.432;2023-12-20T00:29:58;21.30;;;3.20;;
74064;SDS011;62421;51.412;5.432;2023-12-20T00:32:23;26.80;;;4.23;;
74064;SDS011;62421;51.412;5.432;2023-12-20T00:34:48;27.70;;;3.70;;
74064;SDS011;62421;51.412;5.432;2023-12-20T00:37:13;18.03;;;3.03;;
74064;SDS011;62421;51.412;5.432;2023-12-20T00:39:39;13.13;;;2.50;;
74064;SDS011;62421;51.412;5.432;2023-12-20T00:42:04;17.80;;;3.00;;
74064;SDS011;62421;51.412;5.432;2023-12-20T00:44:29;19.83;;;2.40;;
74064;SDS011;62421;51.412;5.432;2023-12-20T00:46:54;22.67;;;3.43;;
74064;SDS011;62421;51.412;5.432;2023-12-20T00:49:20;16.37;;;3.70;;
74064;SDS011;62421;51.412;5.432;2023-12-20T00:51:45;22.63;;;2.60;;
74064;SDS011;62421;51.412;5.432;2023-12-20T00:54:11;18.40;;;2.63;;
74064;SDS011;62421;51.412;5.432;2023-12-20T00:56:37;16.77;;;2.37;;
74064;SDS011;62421;51.412;5.432;2023-12-20T00:59:02;11.03;;;2.90;;
74064;SDS011;62421;51.412;5.432;2023-12-20T01:01:27;25.73;;;3.10;;
74064;SDS011;62421;51.412;5.432;2023-12-20T01:03:52;14.33;;;2.97;;
74064;SDS011;62421;51.412;5.432;2023-12-20T01:06:18;18.07;;;3.50;;
74064;SDS011;62421;51.412;5.432;2023-12-20T01:08:43;17.43;;;2.90;;
74064;SDS011;62421;51.412;5.432;2023-12-20T01:11:08;20.17;;;3.57;;
74064;SDS011;62421;51.412;5.432;2023-12-20T01:13:33;17.20;;;2.57;;
74064;SDS011;62421;51.412;5.432;2023-12-20T01:15:59;16.43;;;2.03;;
74064;SDS011;62421;51.412;5.432;2023-12-20T01:18:24;11.77;;;3.00;;
74064;SDS011;62421;51.412;5.432;2023-12-20T01:20:49;22.03;;;3.03;;
74064;SDS011;62421;51.412;5.432;2023-12-20T01:23:14;12.57;;;3.00;;
74064;SDS011;62421;51.412;5.432;2023-12-20T01:25:40;11.47;;;2.03;;
74064;SDS011;62421;51.412;5.432;2023-12-20T01:28:05;23.43;;;3.67;;
74064;SDS011;62421;51.412;5.432;2023-12-20T01:30:30;12.10;;;2.20;;
74064;SDS011;62421;51.412;5.432;2023-12-20T01:32:55;19.73;;;3.20;;
74064;SDS011;62421;51.412;5.432;2023-12-20T01:35:21;11.47;;;2.57;;
74064;SDS011;62421;51.412;5.432;2023-12-20T01:37:46;17.23;;;3.20;;
74064;SDS011;62421;51.412;5.432;2023-12-20T01:40:11;19.83;;;3.30;;
74064;SDS011;62421;51.412;5.432;2023-12-20T01:42:36;15.23;;;2.50;;
74064;SDS011;62421;51.412;5.432;2023-12-20T01:45:02;10.13;;;2.53;;
74064;SDS011;62421;51.412;5.432;2023-12-20T01:47:27;20.00;;;3.17;;
74064;SDS011;62421;51.412;5.432;2023-12-20T01:49:53;17.35;;;2.47;;
74064;SDS011;62421;51.412;5.432;2023-12-20T01:52:18;12.13;;;2.67;;
74064;SDS011;62421;51.412;5.432;2023-12-20T01:54:44;24.87;;;4.20;;
74064;SDS011;62421;51.412;5.432;2023-12-20T01:57:10;18.37;;;2.70;;
74064;SDS011;62421;51.412;5.432;2023-12-20T01:59:35;14.82;;;2.60;;
74064;SDS011;62421;51.412;5.432;2023-12-20T02:02:00;14.40;;;3.97;;
74064;SDS011;62421;51.412;5.432;2023-12-20T02:04:26;17.10;;;2.43;;
74064;SDS011;62421;51.412;5.432;2023-12-20T02:06:52;21.80;;;2.60;;
74064;SDS011;62421;51.412;5.432;2023-12-20T02:09:17;11.88;;;2.85;;
74064;SDS011;62421;51.412;5.432;2023-12-20T02:11:43;15.20;;;2.87;;
74064;SDS011;62421;51.412;5.432;2023-12-20T02:14:08;22.93;;;3.17;;
74064;SDS011;62421;51.412;5.432;2023-12-20T02:16:33;21.37;;;4.20;;
74064;SDS011;62421;51.412;5.432;2023-12-20T02:18:58;19.00;;;3.60;;
74064;SDS011;62421;51.412;5.432;2023-12-20T02:21:33;14.50;;;3.27;;
74064;SDS011;62421;51.412;5.432;2023-12-20T02:24:01;14.70;;;2.35;;
74064;SDS011;62421;51.412;5.432;2023-12-20T02:26:26;18.50;;;2.70;;
74064;SDS011;62421;51.412;5.432;2023-12-20T02:28:51;16.87;;;3.77;;
74064;SDS011;62421;51.412;5.432;2023-12-20T02:31:20;24.17;;;3.70;;
74064;SDS011;62421;51.412;5.432;2023-12-20T02:33:45;21.02;;;3.03;;
74064;SDS011;62421;51.412;5.432;2023-12-20T02:36:10;19.17;;;2.90;;
74064;SDS011;62421;51.412;5.432;2023-12-20T02:38:35;20.20;;;3.30;;
74064;SDS011;62421;51.412;5.432;2023-12-20T02:41:01;17.63;;;3.23;;
74064;SDS011;62421;51.412;5.432;2023-12-20T02:43:26;17.57;;;2.80;;
74064;SDS011;62421;51.412;5.432;2023-12-20T02:45:51;22.77;;;2.87;;
74064;SDS011;62421;51.412;5.432;2023-12-20T02:48:17;19.23;;;3.50;;
74064;SDS011;62421;51.412;5.432;2023-12-20T02:50:42;12.33;;;3.30;;
74064;SDS011;62421;51.412;5.432;2023-12-20T02:53:07;25.27;;;4.23;;
74064;SDS011;62421;51.412;5.432;2023-12-20T02:55:32;18.33;;;3.27;;
74064;SDS011;62421;51.412;5.432;2023-12-20T02:57:57;18.70;;;3.90;;
74064;SDS011;62421;51.412;5.432;2023-12-20T03:00:23;24.83;;;3.57;;
74064;SDS011;62421;51.412;5.432;2023-12-20T03:02:48;15.97;;;3.70;;
74064;SDS011;62421;51.412;5.432;2023-12-20T03:05:13;20.40;;;3.80;;
74064;SDS011;62421;51.412;5.432;2023-12-20T03:07:39;17.13;;;4.03;;
74064;SDS011;62421;51.412;5.432;2023-12-20T03:10:04;24.70;;;4.30;;
74064;SDS011;62421;51.412;5.432;2023-12-20T03:12:31;27.23;;;4.60;;
74064;SDS011;62421;51.412;5.432;2023-12-20T03:14:56;25.23;;;4.90;;
74064;SDS011;62421;51.412;5.432;2023-12-20T03:17:21;17.77;;;3.97;;
74064;SDS011;62421;51.412;5.432;2023-12-20T03:19:46;21.20;;;4.17;;
74064;SDS011;62421;51.412;5.432;2023-12-20T03:22:11;22.30;;;6.10;;
74064;SDS011;62421;51.412;5.432;2023-12-20T03:24:37;16.77;;;4.60;;
74064;SDS011;62421;51.412;5.432;2023-12-20T03:27:02;16.87;;;4.63;;
74064;SDS011;62421;51.412;5.432;2023-12-20T03:29:27;19.77;;;4.50;;
74064;SDS011;62421;51.412;5.432;2023-12-20T03:31:52;16.67;;;4.20;;
74064;SDS011;62421;51.412;5.432;2023-12-20T03:34:18;13.87;;;4.03;;
74064;SDS011;62421;51.412;5.432;2023-12-20T03:36:43;29.03;;;3.83;;
74064;SDS011;62421;51.412;5.432;2023-12-20T03:39:09;24.85;;;4.63;;
74064;SDS011;62421;51.412;5.432;2023-12-20T03:41:35;24.90;;;4.90;;
74064;SDS011;62421;51.412;5.432;2023-12-20T03:44:00;18.00;;;3.53;;
74064;SDS011;62421;51.412;5.432;2023-12-20T03:46:25;25.37;;;4.47;;
74064;SDS011;62421;51.412;5.432;2023-12-20T03:48:50;23.50;;;5.20;;
74064;SDS011;62421;51.412;5.432;2023-12-20T03:51:15;21.60;;;4.87;;
74064;SDS011;62421;51.412;5.432;2023-12-20T03:53:41;24.20;;;4.40;;
74064;SDS011;62421;51.412;5.432;2023-12-20T03:56:06;21.50;;;5.43;;
74064;SDS011;62421;51.412;5.432;2023-12-20T03:58:31;17.23;;;4.87;;
74064;SDS011;62421;51.412;5.432;2023-12-20T04:00:56;21.63;;;5.97;;
74064;SDS011;62421;51.412;5.432;2023-12-20T04:03:21;25.57;;;5.13;;
74064;SDS011;62421;51.412;5.432;2023-12-20T04:05:47;20.23;;;5.50;;
74064;SDS011;62421;51.412;5.432;2023-12-20T04:08:12;24.10;;;5.57;;
74064;SDS011;62421;51.412;5.432;2023-12-20T04:10:37;30.83;;;5.43;;
74064;SDS011;62421;51.412;5.432;2023-12-20T04:13:02;15.50;;;4.60;;
74064;SDS011;62421;51.412;5.432;2023-12-20T04:15:28;26.53;;;5.13;;
74064;SDS011;62421;51.412;5.432;2023-12-20T04:17:53;34.90;;;5.20;;
74064;SDS011;62421;51.412;5.432;2023-12-20T04:20:18;24.33;;;4.43;;
74064;SDS011;62421;51.412;5.432;2023-12-20T04:22:43;22.90;;;4.87;;
74064;SDS011;62421;51.412;5.432;2023-12-20T04:25:09;24.53;;;4.77;;
74064;SDS011;62421;51.412;5.432;2023-12-20T04:27:34;28.05;;;6.30;;
74064;SDS011;62421;51.412;5.432;2023-12-20T04:29:59;17.27;;;4.63;;
74064;SDS011;62421;51.412;5.432;2023-12-20T04:32:25;21.52;;;5.32;;
74064;SDS011;62421;51.412;5.432;2023-12-20T04:34:50;25.33;;;5.40;;
74064;SDS011;62421;51.412;5.432;2023-12-20T04:37:15;24.85;;;5.68;;
74064;SDS011;62421;51.412;5.432;2023-12-20T04:39:41;30.40;;;5.30;;
74064;SDS011;62421;51.412;5.432;2023-12-20T04:42:06;26.27;;;5.33;;
74064;SDS011;62421;51.412;5.432;2023-12-20T04:44:31;22.40;;;5.13;;
74064;SDS011;62421;51.412;5.432;2023-12-20T04:46:57;32.87;;;5.27;;
74064;SDS011;62421;51.412;5.432;2023-12-20T04:49:22;23.83;;;4.57;;
74064;SDS011;62421;51.412;5.432;2023-12-20T04:51:47;24.53;;;5.07;;
74064;SDS011;62421;51.412;5.432;2023-12-20T04:54:12;24.10;;;5.03;;
74064;SDS011;62421;51.412;5.432;2023-12-20T04:56:38;18.42;;;4.82;;
74064;SDS011;62421;51.412;5.432;2023-12-20T04:59:04;24.43;;;4.90;;
74064;SDS011;62421;51.412;5.432;2023-12-20T05:01:29;21.67;;;5.33;;
74064;SDS011;62421;51.412;5.432;2023-12-20T05:03:54;22.37;;;5.93;;
74064;SDS011;62421;51.412;5.432;2023-12-20T05:06:20;20.80;;;5.47;;
74064;SDS011;62421;51.412;5.432;2023-12-20T05:08:45;29.40;;;5.50;;
74064;SDS011;62421;51.412;5.432;2023-12-20T05:11:10;17.80;;;4.83;;
74064;SDS011;62421;51.412;5.432;2023-12-20T05:13:35;22.43;;;4.87;;
74064;SDS011;62421;51.412;5.432;2023-12-20T05:16:01;30.77;;;5.50;;
74064;SDS011;62421;51.412;5.432;2023-12-20T05:18:26;20.33;;;4.90;;
74064;SDS011;62421;51.412;5.432;2023-12-20T05:20:51;27.13;;;5.47;;
74064;SDS011;62421;51.412;5.432;2023-12-20T05:23:16;23.50;;;4.37;;
74064;SDS011;62421;51.412;5.432;2023-12-20T05:25:42;32.37;;;6.20;;
74064;SDS011;62421;51.412;5.432;2023-12-20T05:28:07;27.87;;;5.20;;
74064;SDS011;62421;51.412;5.432;2023-12-20T05:30:32;24.83;;;4.77;;
74064;SDS011;62421;51.412;5.432;2023-12-20T05:32:57;24.43;;;4.37;;
74064;SDS011;62421;51.412;5.432;2023-12-20T05:35:23;26.97;;;4.77;;
74064;SDS011;62421;51.412;5.432;2023-12-20T05:37:48;20.20;;;4.97;;
74064;SDS011;62421;51.412;5.432;2023-12-20T05:40:13;24.40;;;5.37;;
74064;SDS011;62421;51.412;5.432;2023-12-20T05:42:39;23.33;;;4.57;;
74064;SDS011;62421;51.412;5.432;2023-12-20T05:45:04;23.40;;;4.93;;
74064;SDS011;62421;51.412;5.432;2023-12-20T05:47:30;25.08;;;4.75;;
74064;SDS011;62421;51.412;5.432;2023-12-20T05:49:55;29.67;;;4.80;;
74064;SDS011;62421;51.412;5.432;2023-12-20T05:52:20;20.93;;;4.67;;
74064;SDS011;62421;51.412;5.432;2023-12-20T05:54:45;26.53;;;4.70;;
74064;SDS011;62421;51.412;5.432;2023-12-20T05:57:10;22.50;;;4.23;;
74064;SDS011;62421;51.412;5.432;2023-12-20T05:59:35;28.70;;;4.53;;
74064;SDS011;62421;51.412;5.432;2023-12-20T06:02:02;25.97;;;4.93;;
74064;SDS011;62421;51.412;5.432;2023-12-20T06:04:28;26.65;;;4.63;;
74064;SDS011;62421;51.412;5.432;2023-12-20T06:06:53;12.67;;;3.43;;
74064;SDS011;62421;51.412;5.432;2023-12-20T06:09:18;24.83;;;4.97;;
74064;SDS011;62421;51.412;5.432;2023-12-20T06:11:44;21.92;;;3.65;;
74064;SDS011;62421;51.412;5.432;2023-12-20T06:14:09;28.10;;;4.87;;
74064;SDS011;62421;51.412;5.432;2023-12-20T06:16:34;17.63;;;4.13;;
74064;SDS011;62421;51.412;5.432;2023-12-20T06:19:00;21.80;;;4.30;;
74064;SDS011;62421;51.412;5.432;2023-12-20T06:21:25;24.17;;;3.73;;
74064;SDS011;62421;51.412;5.432;2023-12-20T06:23:50;21.97;;;4.20;;
74064;SDS011;62421;51.412;5.432;2023-12-20T06:26:15;18.70;;;3.70;;
74064;SDS011;62421;51.412;5.432;2023-12-20T06:28:40;29.87;;;4.93;;
74064;SDS011;62421;51.412;5.432;2023-12-20T06:31:06;24.00;;;3.70;;
74064;SDS011;62421;51.412;5.432;2023-12-20T06:33:31;26.00;;;4.20;;
74064;SDS011;62421;51.412;5.432;2023-12-20T06:35:56;35.10;;;4.20;;
74064;SDS011;62421;51.412;5.432;2023-12-20T06:38:22;20.73;;;4.93;;
74064;SDS011;62421;51.412;5.432;2023-12-20T06:40:47;28.83;;;5.40;;
74064;SDS011;62421;51.412;5.432;2023-12-20T06:43:12;28.57;;;5.00;;
74064;SDS011;62421;51.412;5.432;2023-12-20T06:45:38;18.08;;;3.92;;
74064;SDS011;62421;51.412;5.432;2023-12-20T06:48:03;22.80;;;4.20;;
74064;SDS011;62421;51.412;5.432;2023-12-20T06:50:29;23.33;;;4.60;;
74064;SDS011;62421;51.412;5.432;2023-12-20T06:52:54;21.63;;;3.47;;
74064;SDS011;62421;51.412;5.432;2023-12-20T06:55:19;16.00;;;3.57;;
74064;SDS011;62421;51.412;5.432;2023-12-20T06:57:44;25.20;;;4.10;;
74064;SDS011;62421;51.412;5.432;2023-12-20T07:00:11;21.50;;;4.90;;
74064;SDS011;62421;51.412;5.432;2023-12-20T07:02:36;33.05;;;4.15;;
74064;SDS011;62421;51.412;5.432;2023-12-20T07:05:01;18.10;;;4.10;;
74064;SDS011;62421;51.412;5.432;2023-12-20T07:07:27;31.00;;;5.07;;
74064;SDS011;62421;51.412;5.432;2023-12-20T07:09:52;19.13;;;4.57;;
74064;SDS011;62421;51.412;5.432;2023-12-20T07:12:17;39.00;;;4.50;;
74064;SDS011;62421;51.412;5.432;2023-12-20T07:14:44;18.57;;;3.80;;
74064;SDS011;62421;51.412;5.432;2023-12-20T07:17:10;23.08;;;4.30;;
74064;SDS011;62421;51.412;5.432;2023-12-20T07:19:37;27.48;;;4.13;;
74064;SDS011;62421;51.412;5.432;2023-12-20T07:22:02;19.40;;;4.07;;
74064;SDS011;62421;51.412;5.432;2023-12-20T07:24:27;22.60;;;4.07;;
74064;SDS011;62421;51.412;5.432;2023-12-20T07:26:52;30.23;;;3.70;;
74064;SDS011;62421;51.412;5.432;2023-12-20T07:29:18;22.30;;;4.90;;
74064;SDS011;62421;51.412;5.432;2023-12-20T07:31:43;19.23;;;3.80;;
74064;SDS011;62421;51.412;5.432;2023-12-20T07:34:08;29.80;;;4.07;;
74064;SDS011;62421;51.412;5.432;2023-12-20T07:36:33;21.90;;;4.87;;
74064;SDS011;62421;51.412;5.432;2023-12-20T07:38:58;25.83;;;4.43;;
74064;SDS011;62421;51.412;5.432;2023-12-20T07:41:24;20.77;;;4.90;;
74064;SDS011;62421;51.412;5.432;2023-12-20T07:43:49;21.93;;;3.30;;
74064;SDS011;62421;51.412;5.432;2023-12-20T07:46:14;27.03;;;5.10;;
74064;SDS011;62421;51.412;5.432;2023-12-20T07:48:39;20.00;;;4.03;;
74064;SDS011;62421;51.412;5.432;2023-12-20T07:51:06;14.37;;;3.23;;
74064;SDS011;62421;51.412;5.432;2023-12-20T07:53:33;22.48;;;3.28;;
74064;SDS011;62421;51.412;5.432;2023-12-20T07:55:59;19.58;;;4.47;;
74064;SDS011;62421;51.412;5.432;2023-12-20T07:58:24;16.80;;;3.70;;
74064;SDS011;62421;51.412;5.432;2023-12-20T08:00:49;27.67;;;4.97;;
74064;SDS011;62421;51.412;5.432;2023-12-20T08:03:14;20.53;;;3.00;;
74064;SDS011;62421;51.412;5.432;2023-12-20T08:05:40;18.37;;;3.87;;
74064;SDS011;62421;51.412;5.432;2023-12-20T08:08:05;25.13;;;4.53;;
74064;SDS011;62421;51.412;5.432;2023-12-20T08:10:31;30.33;;;4.13;;
74064;SDS011;62421;51.412;5.432;2023-12-20T08:12:56;26.40;;;4.17;;
74064;SDS011;62421;51.412;5.432;2023-12-20T08:15:21;32.20;;;4.80;;
74064;SDS011;62421;51.412;5.432;2023-12-20T08:17:46;31.23;;;3.33;;
74064;SDS011;62421;51.412;5.432;2023-12-20T08:20:11;21.97;;;4.20;;
74064;SDS011;62421;51.412;5.432;2023-12-20T08:22:36;19.70;;;3.40;;
74064;SDS011;62421;51.412;5.432;2023-12-20T08:25:02;20.37;;;4.57;;
74064;SDS011;62421;51.412;5.432;2023-12-20T08:27:27;30.13;;;4.40;;
74064;SDS011;62421;51.412;5.432;2023-12-20T08:29:52;17.33;;;3.37;;
74064;SDS011;62421;51.412;5.432;2023-12-20T08:32:18;21.93;;;3.73;;
74064;SDS011;62421;51.412;5.432;2023-12-20T08:34:43;22.93;;;4.83;;
74064;SDS011;62421;51.412;5.432;2023-12-20T08:37:08;21.43;;;3.37;;
74064;SDS011;62421;51.412;5.432;2023-12-20T08:39:33;28.98;;;4.80;;
74064;SDS011;62421;51.412;5.432;2023-12-20T08:41:58;13.27;;;4.60;;
74064;SDS011;62421;51.412;5.432;2023-12-20T08:44:24;17.87;;;3.33;;
74064;SDS011;62421;51.412;5.432;2023-12-20T08:46:49;14.43;;;3.53;;
74064;SDS011;62421;51.412;5.432;2023-12-20T08:49:14;18.60;;;3.50;;
74064;SDS011;62421;51.412;5.432;2023-12-20T08:51:39;19.43;;;3.93;;
74064;SDS011;62421;51.412;5.432;2023-12-20T08:54:06;16.48;;;4.10;;
74064;SDS011;62421;51.412;5.432;2023-12-20T08:56:32;19.80;;;3.60;;
74064;SDS011;62421;51.412;5.432;2023-12-20T08:58:58;18.38;;;3.45;;
74064;SDS011;62421;51.412;5.432;2023-12-20T09:01:23;29.00;;;4.83;;
74064;SDS011;62421;51.412;5.432;2023-12-20T09:03:49;24.07;;;4.47;;
74064;SDS011;62421;51.412;5.432;2023-12-20T09:06:14;22.37;;;4.10;;
74064;SDS011;62421;51.412;5.432;2023-12-20T09:08:39;23.33;;;3.90;;
74064;SDS011;62421;51.412;5.432;2023-12-20T09:11:04;33.40;;;4.37;;
74064;SDS011;62421;51.412;5.432;2023-12-20T09:13:29;30.77;;;3.93;;
74064;SDS011;62421;51.412;5.432;2023-12-20T09:15:56;20.80;;;3.75;;
74064;SDS011;62421;51.412;5.432;2023-12-20T09:18:22;15.97;;;3.80;;
74064;SDS011;62421;51.412;5.432;2023-12-20T09:20:47;15.77;;;4.07;;
74064;SDS011;62421;51.412;5.432;2023-12-20T09:23:12;17.03;;;3.47;;
74064;SDS011;62421;51.412;5.432;2023-12-20T09:25:37;14.07;;;2.93;;
74064;SDS011;62421;51.412;5.432;2023-12-20T09:28:03;17.97;;;2.07;;
74064;SDS011;62421;51.412;5.432;2023-12-20T09:30:28;16.10;;;3.03;;
74064;SDS011;62421;51.412;5.432;2023-12-20T09:32:54;15.13;;;2.88;;
74064;SDS011;62421;51.412;5.432;2023-12-20T09:35:19;16.10;;;2.90;;
74064;SDS011;62421;51.412;5.432;2023-12-20T09:37:44;14.60;;;3.43;;
74064;SDS011;62421;51.412;5.432;2023-12-20T09:40:12;9.82;;;2.58;;
74064;SDS011;62421;51.412;5.432;2023-12-20T09:42:39;21.70;;;3.13;;
74064;SDS011;62421;51.412;5.432;2023-12-20T09:45:08;14.25;;;3.55;;
74064;SDS011;62421;51.412;5.432;2023-12-20T09:47:33;18.83;;;3.95;;
74064;SDS011;62421;51.412;5.432;2023-12-20T09:49:59;18.20;;;3.63;;
74064;SDS011;62421;51.412;5.432;2023-12-20T09:52:24;18.83;;;3.83;;
74064;SDS011;62421;51.412;5.432;2023-12-20T09:54:49;16.77;;;3.30;;
74064;SDS011;62421;51.412;5.432;2023-12-20T09:57:17;21.65;;;3.97;;
74064;SDS011;62421;51.412;5.432;2023-12-20T09:59:42;18.07;;;3.37;;
74064;SDS011;62421;51.412;5.432;2023-12-20T10:02:08;28.13;;;4.17;;
74064;SDS011;62421;51.412;5.432;2023-12-20T10:04:35;24.17;;;4.60;;
74064;SDS011;62421;51.412;5.432;2023-12-20T10:07:03;17.53;;;3.60;;
74064;SDS011;62421;51.412;5.432;2023-12-20T10:09:29;19.05;;;3.00;;
74064;SDS011;62421;51.412;5.432;2023-12-20T10:11:56;22.77;;;4.68;;
74064;SDS011;62421;51.412;5.432;2023-12-20T10:14:22;21.47;;;3.50;;
74064;SDS011;62421;51.412;5.432;2023-12-20T10:16:48;22.77;;;3.90;;
74064;SDS011;62421;51.412;5.432;2023-12-20T10:19:15;18.00;;;3.17;;
74064;SDS011;62421;51.412;5.432;2023-12-20T10:21:41;16.52;;;3.28;;
74064;SDS011;62421;51.412;5.432;2023-12-20T10:24:06;22.23;;;3.07;;
74064;SDS011;62421;51.412;5.432;2023-12-20T10:26:31;17.87;;;2.97;;
74064;SDS011;62421;51.412;5.432;2023-12-20T10:29:00;20.13;;;4.47;;
74064;SDS011;62421;51.412;5.432;2023-12-20T10:31:29;15.82;;;3.15;;
74064;SDS011;62421;51.412;5.432;2023-12-20T10:33:57;22.73;;;4.00;;
74064;SDS011;62421;51.412;5.432;2023-12-20T10:36:24;17.05;;;2.80;;
74064;SDS011;62421;51.412;5.432;2023-12-20T10:38:51;17.13;;;3.60;;
74064;SDS011;62421;51.412;5.432;2023-12-20T10:41:17;25.00;;;3.87;;
74064;SDS011;62421;51.412;5.432;2023-12-20T10:43:43;31.00;;;3.88;;
74064;SDS011;62421;51.412;5.432;2023-12-20T10:46:09;18.10;;;3.00;;
74064;SDS011;62421;51.412;5.432;2023-12-20T10:48:35;14.83;;;2.93;;
74064;SDS011;62421;51.412;5.432;2023-12-20T10:51:00;26.95;;;3.53;;
74064;SDS011;62421;51.412;5.432;2023-12-20T10:53:26;16.30;;;3.93;;
74064;SDS011;62421;51.412;5.432;2023-12-20T10:55:52;13.70;;;3.53;;
74064;SDS011;62421;51.412;5.432;2023-12-20T10:58:18;15.95;;;3.53;;
74064;SDS011;62421;51.412;5.432;2023-12-20T11:00:45;20.10;;;3.97;;
74064;SDS011;62421;51.412;5.432;2023-12-20T11:03:11;24.57;;;3.87;;
74064;SDS011;62421;51.412;5.432;2023-12-20T11:05:50;20.80;;;5.18;;
74064;SDS011;62421;51.412;5.432;2023-12-20T11:11:06;21.05;;;3.60;;
74064;SDS011;62421;51.412;5.432;2023-12-20T11:13:34;14.02;;;3.47;;
74064;SDS011;62421;51.412;5.432;2023-12-20T11:15:59;20.87;;;3.50;;
74064;SDS011;62421;51.412;5.432;2023-12-20T11:18:31;19.48;;;4.35;;
74064;SDS011;62421;51.412;5.432;2023-12-20T11:21:04;21.33;;;3.50;;
74064;SDS011;62421;51.412;5.432;2023-12-20T11:23:29;15.52;;;3.33;;
74064;SDS011;62421;51.412;5.432;2023-12-20T11:25:55;16.85;;;3.65;;
74064;SDS011;62421;51.412;5.432;2023-12-20T11:28:23;15.83;;;4.60;;
74064;SDS011;62421;51.412;5.432;2023-12-20T11:30:50;21.33;;;3.83;;
74064;SDS011;62421;51.412;5.432;2023-12-20T11:33:16;15.38;;;4.00;;
74064;SDS011;62421;51.412;5.432;2023-12-20T11:35:42;17.20;;;4.03;;
74064;SDS011;62421;51.412;5.432;2023-12-20T11:38:08;17.92;;;4.25;;
74064;SDS011;62421;51.412;5.432;2023-12-20T11:40:34;17.15;;;3.35;;
74064;SDS011;62421;51.412;5.432;2023-12-20T11:42:59;25.00;;;4.57;;
74064;SDS011;62421;51.412;5.432;2023-12-20T11:45:24;19.23;;;4.37;;
74064;SDS011;62421;51.412;5.432;2023-12-20T11:47:51;17.05;;;3.28;;
74064;SDS011;62421;51.412;5.432;2023-12-20T11:50:17;16.17;;;3.90;;
74064;SDS011;62421;51.412;5.432;2023-12-20T11:52:42;10.93;;;2.95;;
74064;SDS011;62421;51.412;5.432;2023-12-20T11:55:07;18.37;;;3.37;;
74064;SDS011;62421;51.412;5.432;2023-12-20T11:57:33;15.27;;;3.93;;
74064;SDS011;62421;51.412;5.432;2023-12-20T11:59:58;16.10;;;4.50;;
74064;SDS011;62421;51.412;5.432;2023-12-20T12:02:24;17.80;;;3.90;;
74064;SDS011;62421;51.412;5.432;2023-12-20T12:04:49;18.83;;;3.97;;
74064;SDS011;62421;51.412;5.432;2023-12-20T12:07:15;19.77;;;4.28;;
74064;SDS011;62421;51.412;5.432;2023-12-20T12:09:41;24.07;;;4.30;;
74064;SDS011;62421;51.412;5.432;2023-12-20T12:12:06;17.37;;;3.70;;
74064;SDS011;62421;51.412;5.432;2023-12-20T12:14:32;22.35;;;4.20;;
74064;SDS011;62421;51.412;5.432;2023-12-20T12:16:57;13.47;;;3.07;;
74064;SDS011;62421;51.412;5.432;2023-12-20T12:19:22;17.60;;;4.23;;
74064;SDS011;62421;51.412;5.432;2023-12-20T12:21:48;18.40;;;3.97;;
74064;SDS011;62421;51.412;5.432;2023-12-20T12:24:13;23.80;;;4.50;;
74064;SDS011;62421;51.412;5.432;2023-12-20T12:26:39;17.17;;;4.13;;
74064;SDS011;62421;51.412;5.432;2023-12-20T12:29:07;17.10;;;3.50;;
74064;SDS011;62421;51.412;5.432;2023-12-20T12:31:32;14.15;;;3.90;;
74064;SDS011;62421;51.412;5.432;2023-12-20T12:33:57;16.77;;;4.23;;
74064;SDS011;62421;51.412;5.432;2023-12-20T12:36:23;18.47;;;3.40;;
74064;SDS011;62421;51.412;5.432;2023-12-20T12:38:48;22.10;;;5.77;;
74064;SDS011;62421;51.412;5.432;2023-12-20T12:41:13;24.93;;;5.07;;
74064;SDS011;62421;51.412;5.432;2023-12-20T12:43:40;27.47;;;5.80;;
74064;SDS011;62421;51.412;5.432;2023-12-20T12:46:06;19.23;;;5.35;;
74064;SDS011;62421;51.412;5.432;2023-12-20T12:48:31;25.93;;;6.07;;
74064;SDS011;62421;51.412;5.432;2023-12-20T12:50:57;21.88;;;5.18;;
74064;SDS011;62421;51.412;5.432;2023-12-20T12:53:24;24.03;;;6.20;;
74064;SDS011;62421;51.412;5.432;2023-12-20T12:55:49;13.23;;;4.65;;
74064;SDS011;62421;51.412;5.432;2023-12-20T12:58:14;11.43;;;4.60;;
74064;SDS011;62421;51.412;5.432;2023-12-20T13:00:40;24.53;;;6.60;;
74064;SDS011;62421;51.412;5.432;2023-12-20T13:03:05;26.27;;;7.20;;
74064;SDS011;62421;51.412;5.432;2023-12-20T13:05:30;15.87;;;4.70;;
74064;SDS011;62421;51.412;5.432;2023-12-20T13:07:56;18.92;;;6.40;;
74064;SDS011;62421;51.412;5.432;2023-12-20T13:10:21;19.50;;;6.57;;
74064;SDS011;62421;51.412;5.432;2023-12-20T13:12:47;25.90;;;7.30;;
74064;SDS011;62421;51.412;5.432;2023-12-20T13:15:12;20.37;;;4.90;;
74064;SDS011;62421;51.412;5.432;2023-12-20T13:17:37;20.20;;;6.10;;
74064;SDS011;62421;51.412;5.432;2023-12-20T13:20:03;29.17;;;6.90;;
74064;SDS011;62421;51.412;5.432;2023-12-20T13:22:28;23.17;;;6.28;;
74064;SDS011;62421;51.412;5.432;2023-12-20T13:24:53;19.70;;;5.70;;
74064;SDS011;62421;51.412;5.432;2023-12-20T13:27:19;21.93;;;5.67;;
74064;SDS011;62421;51.412;5.432;2023-12-20T13:29:44;19.87;;;4.33;;
74064;SDS011;62421;51.412;5.432;2023-12-20T13:32:09;22.67;;;5.33;;
74064;SDS011;62421;51.412;5.432;2023-12-20T13:34:34;16.33;;;4.57;;
74064;SDS011;62421;51.412;5.432;2023-12-20T13:36:59;22.20;;;5.73;;
74064;SDS011;62421;51.412;5.432;2023-12-20T13:39:25;17.43;;;5.30;;
74064;SDS011;62421;51.412;5.432;2023-12-20T13:41:50;14.82;;;5.20;;
74064;SDS011;62421;51.412;5.432;2023-12-20T13:44:15;16.73;;;5.17;;
74064;SDS011;62421;51.412;5.432;2023-12-20T13:46:41;20.97;;;4.83;;
74064;SDS011;62421;51.412;5.432;2023-12-20T13:49:06;15.40;;;4.10;;
74064;SDS011;62421;51.412;5.432;2023-12-20T13:51:31;19.40;;;4.83;;
74064;SDS011;62421;51.412;5.432;2023-12-20T13:53:56;28.40;;;6.10;;
74064;SDS011;62421;51.412;5.432;2023-12-20T13:56:22;21.77;;;5.27;;
74064;SDS011;62421;51.412;5.432;2023-12-20T13:58:48;20.42;;;5.00;;
74064;SDS011;62421;51.412;5.432;2023-12-20T14:01:13;23.67;;;5.65;;
74064;SDS011;62421;51.412;5.432;2023-12-20T14:03:38;22.67;;;5.87;;
74064;SDS011;62421;51.412;5.432;2023-12-20T14:06:03;23.63;;;4.60;;
74064;SDS011;62421;51.412;5.432;2023-12-20T14:08:29;21.27;;;4.72;;
74064;SDS011;62421;51.412;5.432;2023-12-20T14:10:54;22.67;;;4.67;;
74064;SDS011;62421;51.412;5.432;2023-12-20T14:13:19;20.33;;;5.30;;
74064;SDS011;62421;51.412;5.432;2023-12-20T14:15:45;24.13;;;6.45;;
74064;SDS011;62421;51.412;5.432;2023-12-20T14:18:11;22.75;;;5.00;;
74064;SDS011;62421;51.412;5.432;2023-12-20T14:20:39;16.75;;;4.40;;
74064;SDS011;62421;51.412;5.432;2023-12-20T14:23:04;22.53;;;5.30;;
74064;SDS011;62421;51.412;5.432;2023-12-20T14:25:30;23.73;;;5.33;;